CheckWX is a tool to help pilots better visualize weather data.  It is not intended as a substitute for an official pre-flight weather briefing.

20:55:03 UTC

KNDZ METAR
Whiting Field NAS South Airport
Milton, Florida, USA
Current

59 mins ago

KNDZ 261956Z 36004KT 10SM FEW050 SCT150 BKN250 34/22 A3014 RMK AO2 SLP191 T03390217 $
Observed
Jun-26 @ 19:56 UTC
Wind
  • 360° at 4 KTS
Visibility
10 SM
Flight Rules
VFR
Cloud Levels
  • Few at 5,000' AGL
  • Scattered at 15,000' AGL
  • Broken at 25,000' AGL
Temperature
34°C / 93°F
Dewpoint
22°C / 72°F
Heat Index
38°C / 100°F
Humidity
49%
Altimeter
30.14" Hg
Pressure
1020.62 hPa
Previous

2 hours ago

KNDZ 261856Z 06007KT 10SM FEW045 SCT150 BKN250 33/22 A3015 RMK AO2 SLP194 T03330217 $
Observed
Jun-26 @ 18:56 UTC
Wind
  • 060° at 7 KTS
Visibility
10 SM
Flight Rules
VFR
Cloud Levels
  • Few at 4,500' AGL
  • Scattered at 15,000' AGL
  • Broken at 25,000' AGL
Temperature
33°C / 91°F
Dewpoint
22°C / 72°F
Heat Index
37°C / 98°F
Humidity
52%
Altimeter
30.15" Hg
Pressure
1021.02 hPa
Previous

3 hours ago

KNDZ 261756Z 06005KT 10SM SCT140 BKN220 32/22 A3016 RMK AO2 SLP197 T03170217 10328 20233 58010 $
Observed
Jun-26 @ 17:56 UTC
Wind
  • 060° at 5 KTS
Visibility
10 SM
Flight Rules
VFR
Cloud Levels
  • Scattered at 14,000' AGL
  • Broken at 22,000' AGL
Temperature
32°C / 90°F
Dewpoint
22°C / 72°F
Heat Index
36°C / 97°F
Humidity
55%
Altimeter
30.16" Hg
Pressure
1021.32 hPa